Lula, MS

4:54 PM CDT on May 29, 2015 (GMT -0500)
Olive Branch | | Change Station
CLOSE
Current Station
Airport
Location: Olive Branch,
Elevation: 400 ft
Nearby Weather Stations

Elev 400 ft 34.98 °N, 89.79 °W | Updated 1 hour ago

Clear
Clear
84 °F
Feels Like 92 °F
N
6
Wind Variable Wind from South

Today
High -- | Low -- °F
--% Chance of Precip.
Yesterday
High -- | Low -- °F
Precip. -- in
5:51 AM 8:07 PM
Waxing Gibbous, 86% visible
Pressure 30.02 in
Visibility 10.0 miles
Clouds Scattered Clouds 3200 ft
Mostly Cloudy 15000 ft
Mostly Cloudy 25000 ft
Heat Index 92 °F
Dew Point 75 °F
Humidity 74%
Rainfall 0.00 in
Snow Depth Not available.
UV 4 out of 12
Pollen 6.10 out of 12
Air Quality Not available.
Flu Activity No Activity
METAR KOLV 292050Z 17005KT 10SM SCT032 BKN150 BKN250 29/24 A3002

More Conditions Fewer Conditions

Pressure 30.02 in
Visibility 10.0 miles
Clouds Scattered Clouds 3200 ft
Mostly Cloudy 15000 ft
Mostly Cloudy 25000 ft
Heat Index 92 °F
Dew Point 75 °F
Humidity 74%
Rainfall 0.00 in
Snow Depth Not available.
UV 4 out of 12
Pollen 6.10 out of 12
Air Quality Not available.
Flu Activity No Activity
METAR KOLV 292050Z 17005KT 10SM SCT032 BKN150 BKN250 29/24 A3002

More Conditions Fewer Conditions

10-Day Weather Forecast

Almanac

Astronomy

May. 29, 2015 Rise Set
Actual Time
Civil Twilight
Nautical Twilight
Astronomical Twilight
Moon
Length of Visible Light
Length of Day
Tomorrow will be .
, % of the Moon is Illuminated

Today's Extremes

State Highs State Lows

Community

WunderPhotos

Upload Photos

1,825,372 photos uploaded!

WunderBlogs® & News

Nearby

Air Quality

  Air Quality AQ Index Pollutant
Not available.

Snow Depth

Station Depth Elevation

Earthquake Activity

City Distance Mag. Time & Date
Minimum magnitude displayed is 2.5.

Coastal Water Temperatures

Place Temperature

Stations

Nearby Weather Stations

Station Location Temp. Windchill Dew Point Humidity Wind Precip. Elev Updated Type